sensor_id;sensor_type;location;lat;lon;timestamp;pressure;altitude;pressure_sealevel;temperature;humidity
804;BME280;25687;49.976;8.240;2023-11-21T00:01:37;99434.06;;;8.29;100.00
804;BME280;25687;49.976;8.240;2023-11-21T00:04:03;99427.47;;;8.25;100.00
804;BME280;25687;49.976;8.240;2023-11-21T00:06:28;99434.25;;;8.26;100.00
804;BME280;25687;49.976;8.240;2023-11-21T00:08:55;99432.06;;;8.34;100.00
804;BME280;25687;49.976;8.240;2023-11-21T00:11:20;99430.16;;;8.38;100.00
804;BME280;25687;49.976;8.240;2023-11-21T00:13:46;99425.03;;;8.38;100.00
804;BME280;25687;49.976;8.240;2023-11-21T00:16:11;99422.38;;;8.39;100.00
804;BME280;25687;49.976;8.240;2023-11-21T00:18:36;99424.63;;;8.30;100.00
804;BME280;25687;49.976;8.240;2023-11-21T00:21:02;99427.88;;;8.17;100.00
804;BME280;25687;49.976;8.240;2023-11-21T00:23:28;99426.56;;;8.10;100.00
804;BME280;25687;49.976;8.240;2023-11-21T00:25:54;99424.50;;;8.17;100.00
804;BME280;25687;49.976;8.240;2023-11-21T00:28:19;99424.38;;;8.34;100.00
804;BME280;25687;49.976;8.240;2023-11-21T00:30:44;99428.50;;;8.37;100.00
804;BME280;25687;49.976;8.240;2023-11-21T00:33:10;99430.91;;;8.40;100.00
804;BME280;25687;49.976;8.240;2023-11-21T00:35:35;99425.88;;;8.38;100.00
804;BME280;25687;49.976;8.240;2023-11-21T00:38:00;99429.00;;;8.44;100.00
804;BME280;25687;49.976;8.240;2023-11-21T00:40:26;99424.78;;;8.43;100.00
804;BME280;25687;49.976;8.240;2023-11-21T00:42:51;99425.22;;;8.35;100.00
804;BME280;25687;49.976;8.240;2023-11-21T00:45:16;99428.44;;;8.38;100.00
804;BME280;25687;49.976;8.240;2023-11-21T00:47:41;99429.59;;;8.33;100.00
804;BME280;25687;49.976;8.240;2023-11-21T00:50:07;99426.63;;;8.24;100.00
804;BME280;25687;49.976;8.240;2023-11-21T00:52:33;99424.00;;;8.26;100.00
804;BME280;25687;49.976;8.240;2023-11-21T00:54:58;99422.59;;;8.20;100.00
804;BME280;25687;49.976;8.240;2023-11-21T00:57:25;99427.13;;;8.47;100.00
804;BME280;25687;49.976;8.240;2023-11-21T00:59:51;99421.06;;;8.48;100.00
804;BME280;25687;49.976;8.240;2023-11-21T01:02:16;99429.41;;;8.36;100.00
804;BME280;25687;49.976;8.240;2023-11-21T01:04:42;99430.97;;;8.54;100.00
804;BME280;25687;49.976;8.240;2023-11-21T01:07:07;99424.59;;;8.46;100.00
804;BME280;25687;49.976;8.240;2023-11-21T01:09:32;99422.72;;;8.49;100.00
804;BME280;25687;49.976;8.240;2023-11-21T01:11:58;99431.91;;;8.53;100.00
804;BME280;25687;49.976;8.240;2023-11-21T01:14:25;99433.16;;;8.46;100.00
804;BME280;25687;49.976;8.240;2023-11-21T01:16:51;99447.94;;;8.57;100.00
804;BME280;25687;49.976;8.240;2023-11-21T01:19:17;99445.28;;;8.43;100.00
804;BME280;25687;49.976;8.240;2023-11-21T01:21:42;99444.78;;;8.52;100.00
804;BME280;25687;49.976;8.240;2023-11-21T01:24:07;99444.72;;;8.53;100.00
804;BME280;25687;49.976;8.240;2023-11-21T01:26:33;99446.28;;;8.56;100.00
804;BME280;25687;49.976;8.240;2023-11-21T01:28:58;99447.94;;;8.57;100.00
804;BME280;25687;49.976;8.240;2023-11-21T01:31:24;99444.38;;;8.60;100.00
804;BME280;25687;49.976;8.240;2023-11-21T01:33:52;99448.16;;;8.68;100.00
804;BME280;25687;49.976;8.240;2023-11-21T01:36:17;99450.78;;;8.67;100.00
804;BME280;25687;49.976;8.240;2023-11-21T01:38:43;99458.81;;;8.61;100.00
804;BME280;25687;49.976;8.240;2023-11-21T01:41:08;99467.13;;;8.50;100.00
804;BME280;25687;49.976;8.240;2023-11-21T01:43:36;99461.34;;;8.46;100.00
804;BME280;25687;49.976;8.240;2023-11-21T01:46:02;99465.78;;;8.43;100.00
804;BME280;25687;49.976;8.240;2023-11-21T01:48:29;99469.16;;;8.43;100.00
804;BME280;25687;49.976;8.240;2023-11-21T01:50:55;99466.28;;;8.33;100.00
804;BME280;25687;49.976;8.240;2023-11-21T01:53:20;99469.09;;;8.45;100.00
804;BME280;25687;49.976;8.240;2023-11-21T01:55:46;99464.38;;;8.53;100.00
804;BME280;25687;49.976;8.240;2023-11-21T01:58:11;99466.50;;;8.61;100.00
804;BME280;25687;49.976;8.240;2023-11-21T02:00:37;99472.84;;;8.69;100.00
804;BME280;25687;49.976;8.240;2023-11-21T02:03:03;99471.78;;;8.74;100.00
804;BME280;25687;49.976;8.240;2023-11-21T02:05:29;99475.41;;;8.69;100.00
804;BME280;25687;49.976;8.240;2023-11-21T02:07:54;99470.28;;;8.69;100.00
804;BME280;25687;49.976;8.240;2023-11-21T02:10:19;99471.94;;;8.70;100.00
804;BME280;25687;49.976;8.240;2023-11-21T02:12:51;99474.25;;;8.75;100.00
804;BME280;25687;49.976;8.240;2023-11-21T02:15:17;99483.31;;;8.50;100.00
804;BME280;25687;49.976;8.240;2023-11-21T02:17:46;99475.53;;;8.36;100.00
804;BME280;25687;49.976;8.240;2023-11-21T02:20:13;99482.81;;;8.44;100.00
804;BME280;25687;49.976;8.240;2023-11-21T02:22:55;99478.69;;;8.41;100.00
804;BME280;25687;49.976;8.240;2023-11-21T02:25:24;99475.84;;;8.46;100.00
804;BME280;25687;49.976;8.240;2023-11-21T02:27:50;99479.09;;;8.33;100.00
804;BME280;25687;49.976;8.240;2023-11-21T02:30:16;99474.91;;;8.32;100.00
804;BME280;25687;49.976;8.240;2023-11-21T02:32:41;99482.50;;;8.34;100.00
804;BME280;25687;49.976;8.240;2023-11-21T02:35:08;99480.50;;;8.39;100.00
804;BME280;25687;49.976;8.240;2023-11-21T02:37:33;99470.50;;;8.34;100.00
804;BME280;25687;49.976;8.240;2023-11-21T02:40:00;99475.03;;;8.45;100.00
804;BME280;25687;49.976;8.240;2023-11-21T02:42:25;99481.84;;;8.46;100.00
804;BME280;25687;49.976;8.240;2023-11-21T02:44:51;99480.97;;;8.46;100.00
804;BME280;25687;49.976;8.240;2023-11-21T02:47:16;99478.94;;;8.36;100.00
804;BME280;25687;49.976;8.240;2023-11-21T02:49:42;99484.63;;;8.42;100.00
804;BME280;25687;49.976;8.240;2023-11-21T02:52:07;99480.25;;;8.44;100.00
804;BME280;25687;49.976;8.240;2023-11-21T02:54:33;99486.38;;;8.41;100.00
804;BME280;25687;49.976;8.240;2023-11-21T02:57:01;99485.06;;;8.34;100.00
804;BME280;25687;49.976;8.240;2023-11-21T02:59:27;99484.31;;;8.32;100.00
804;BME280;25687;49.976;8.240;2023-11-21T03:01:52;99486.97;;;8.30;100.00
804;BME280;25687;49.976;8.240;2023-11-21T03:04:18;99489.28;;;8.35;100.00
804;BME280;25687;49.976;8.240;2023-11-21T03:06:44;99485.06;;;8.34;100.00
804;BME280;25687;49.976;8.240;2023-11-21T03:09:10;99495.13;;;8.37;100.00
804;BME280;25687;49.976;8.240;2023-11-21T03:11:37;99486.63;;;8.36;100.00
804;BME280;25687;49.976;8.240;2023-11-21T03:14:02;99482.59;;;8.32;100.00
804;BME280;25687;49.976;8.240;2023-11-21T03:16:27;99487.13;;;8.27;100.00
804;BME280;25687;49.976;8.240;2023-11-21T03:18:54;99485.41;;;8.28;100.00
804;BME280;25687;49.976;8.240;2023-11-21T03:21:19;99489.53;;;8.14;100.00
804;BME280;25687;49.976;8.240;2023-11-21T03:23:44;99484.16;;;8.19;100.00
804;BME280;25687;49.976;8.240;2023-11-21T03:26:13;99492.00;;;8.16;100.00
804;BME280;25687;49.976;8.240;2023-11-21T03:28:38;99495.06;;;8.22;100.00
804;BME280;25687;49.976;8.240;2023-11-21T03:31:04;99498.31;;;8.10;100.00
804;BME280;25687;49.976;8.240;2023-11-21T03:33:31;99505.56;;;8.02;100.00
804;BME280;25687;49.976;8.240;2023-11-21T03:35:57;99505.06;;;7.95;100.00
804;BME280;25687;49.976;8.240;2023-11-21T03:38:22;99505.22;;;7.92;100.00
804;BME280;25687;49.976;8.240;2023-11-21T03:40:48;99517.53;;;7.85;100.00
804;BME280;25687;49.976;8.240;2023-11-21T03:43:14;99523.03;;;7.78;100.00
804;BME280;25687;49.976;8.240;2023-11-21T03:45:39;99518.31;;;7.70;100.00
804;BME280;25687;49.976;8.240;2023-11-21T03:48:06;99518.19;;;7.73;100.00
804;BME280;25687;49.976;8.240;2023-11-21T03:50:31;99524.44;;;7.67;100.00
804;BME280;25687;49.976;8.240;2023-11-21T03:52:57;99519.72;;;7.59;100.00
804;BME280;25687;49.976;8.240;2023-11-21T03:55:22;99522.03;;;7.64;100.00
804;BME280;25687;49.976;8.240;2023-11-21T03:57:49;99531.34;;;7.65;100.00
804;BME280;25687;49.976;8.240;2023-11-21T04:00:15;99529.31;;;7.72;100.00
804;BME280;25687;49.976;8.240;2023-11-21T04:02:41;99530.06;;;7.74;100.00
804;BME280;25687;49.976;8.240;2023-11-21T04:05:06;99530.06;;;7.74;100.00
804;BME280;25687;49.976;8.240;2023-11-21T04:07:32;99535.59;;;7.82;100.00
804;BME280;25687;49.976;8.240;2023-11-21T04:09:57;99529.44;;;7.86;100.00
804;BME280;25687;49.976;8.240;2023-11-21T04:12:23;99541.84;;;7.94;100.00
804;BME280;25687;49.976;8.240;2023-11-21T04:14:48;99551.31;;;7.92;100.00
804;BME280;25687;49.976;8.240;2023-11-21T04:17:13;99547.69;;;7.80;100.00
804;BME280;25687;49.976;8.240;2023-11-21T04:19:38;99551.19;;;7.95;100.00
804;BME280;25687;49.976;8.240;2023-11-21T04:22:04;99556.13;;;7.98;100.00
804;BME280;25687;49.976;8.240;2023-11-21T04:24:29;99565.16;;;8.05;100.00
804;BME280;25687;49.976;8.240;2023-11-21T04:26:54;99563.06;;;8.12;100.00
804;BME280;25687;49.976;8.240;2023-11-21T04:29:20;99563.19;;;8.27;100.00
804;BME280;25687;49.976;8.240;2023-11-21T04:31:45;99570.94;;;8.25;100.00
804;BME280;25687;49.976;8.240;2023-11-21T04:34:11;99574.50;;;8.22;100.00
804;BME280;25687;49.976;8.240;2023-11-21T04:36:36;99567.94;;;8.01;100.00
804;BME280;25687;49.976;8.240;2023-11-21T04:39:02;99576.06;;;8.09;100.00
804;BME280;25687;49.976;8.240;2023-11-21T04:41:27;99572.47;;;7.96;100.00
804;BME280;25687;49.976;8.240;2023-11-21T04:43:53;99576.06;;;8.09;100.00
804;BME280;25687;49.976;8.240;2023-11-21T04:46:18;99581.53;;;8.19;100.00
804;BME280;25687;49.976;8.240;2023-11-21T04:48:43;99576.63;;;8.14;100.00
804;BME280;25687;49.976;8.240;2023-11-21T04:51:09;99581.09;;;8.11;100.00
804;BME280;25687;49.976;8.240;2023-11-21T04:53:34;99579.19;;;8.14;100.00
804;BME280;25687;49.976;8.240;2023-11-21T04:56:00;99586.72;;;8.01;100.00
804;BME280;25687;49.976;8.240;2023-11-21T04:58:25;99588.94;;;8.07;100.00
804;BME280;25687;49.976;8.240;2023-11-21T05:00:51;99598.53;;;8.04;100.00
804;BME280;25687;49.976;8.240;2023-11-21T05:03:16;99601.28;;;7.83;100.00
804;BME280;25687;49.976;8.240;2023-11-21T05:05:41;99599.16;;;7.91;100.00
804;BME280;25687;49.976;8.240;2023-11-21T05:08:07;99608.69;;;8.05;100.00
804;BME280;25687;49.976;8.240;2023-11-21T05:10:33;99616.28;;;8.07;100.00
804;BME280;25687;49.976;8.240;2023-11-21T05:12:58;99617.59;;;7.98;100.00
804;BME280;25687;49.976;8.240;2023-11-21T05:15:23;99621.59;;;8.04;100.00
804;BME280;25687;49.976;8.240;2023-11-21T05:17:49;99619.75;;;8.06;100.00
804;BME280;25687;49.976;8.240;2023-11-21T05:20:17;99628.81;;;7.96;100.00
804;BME280;25687;49.976;8.240;2023-11-21T05:22:46;99622.47;;;8.03;100.00
804;BME280;25687;49.976;8.240;2023-11-21T05:25:11;99623.97;;;8.07;100.00
804;BME280;25687;49.976;8.240;2023-11-21T05:27:37;99625.72;;;8.06;100.00
804;BME280;25687;49.976;8.240;2023-11-21T05:30:03;99621.06;;;7.97;100.00
804;BME280;25687;49.976;8.240;2023-11-21T05:32:34;99630.56;;;7.95;100.00
804;BME280;25687;49.976;8.240;2023-11-21T05:34:59;99632.72;;;8.03;100.00
804;BME280;25687;49.976;8.240;2023-11-21T05:37:25;99639.03;;;8.13;100.00
804;BME280;25687;49.976;8.240;2023-11-21T05:39:52;99637.13;;;8.17;100.00
804;BME280;25687;49.976;8.240;2023-11-21T05:42:18;99632.69;;;8.20;100.00
804;BME280;25687;49.976;8.240;2023-11-21T05:44:43;99644.19;;;8.29;100.00
804;BME280;25687;49.976;8.240;2023-11-21T05:47:09;99652.84;;;8.27;100.00
804;BME280;25687;49.976;8.240;2023-11-21T05:49:34;99646.47;;;8.18;100.00
804;BME280;25687;49.976;8.240;2023-11-21T05:52:00;99653.63;;;8.11;100.00
804;BME280;25687;49.976;8.240;2023-11-21T05:54:25;99656.28;;;8.10;100.00
804;BME280;25687;49.976;8.240;2023-11-21T05:56:51;99660.19;;;8.17;100.00
804;BME280;25687;49.976;8.240;2023-11-21T05:59:16;99663.50;;;8.19;100.00
804;BME280;25687;49.976;8.240;2023-11-21T06:01:41;99667.00;;;8.00;100.00
804;BME280;25687;49.976;8.240;2023-11-21T06:04:07;99673.72;;;8.03;100.00
804;BME280;25687;49.976;8.240;2023-11-21T06:06:34;99665.25;;;8.01;100.00
804;BME280;25687;49.976;8.240;2023-11-21T06:09:00;99666.25;;;7.98;100.00
804;BME280;25687;49.976;8.240;2023-11-21T06:11:25;99671.25;;;8.01;100.00
804;BME280;25687;49.976;8.240;2023-11-21T06:13:50;99676.41;;;8.00;100.00
804;BME280;25687;49.976;8.240;2023-11-21T06:16:15;99679.34;;;8.10;100.00
804;BME280;25687;49.976;8.240;2023-11-21T06:18:44;99678.28;;;8.14;100.00
804;BME280;25687;49.976;8.240;2023-11-21T06:21:10;99686.94;;;8.11;100.00
804;BME280;25687;49.976;8.240;2023-11-21T06:23:35;99692.38;;;8.22;100.00
804;BME280;25687;49.976;8.240;2023-11-21T06:26:01;99696.50;;;8.25;100.00
804;BME280;25687;49.976;8.240;2023-11-21T06:28:26;99701.41;;;8.12;100.00
804;BME280;25687;49.976;8.240;2023-11-21T06:30:51;99700.00;;;8.06;100.00
804;BME280;25687;49.976;8.240;2023-11-21T06:33:18;99703.28;;;8.08;100.00
804;BME280;25687;49.976;8.240;2023-11-21T06:35:43;99710.69;;;7.97;100.00
804;BME280;25687;49.976;8.240;2023-11-21T06:38:09;99707.69;;;8.06;100.00
804;BME280;25687;49.976;8.240;2023-11-21T06:40:35;99716.19;;;8.07;100.00
804;BME280;25687;49.976;8.240;2023-11-21T06:43:00;99712.09;;;8.20;100.00
804;BME280;25687;49.976;8.240;2023-11-21T06:45:26;99714.00;;;8.17;100.00
804;BME280;25687;49.976;8.240;2023-11-21T06:47:51;99718.34;;;8.15;100.00
804;BME280;25687;49.976;8.240;2023-11-21T06:50:16;99716.06;;;8.10;100.00
804;BME280;25687;49.976;8.240;2023-11-21T06:52:42;99723.88;;;8.07;100.00
804;BME280;25687;49.976;8.240;2023-11-21T06:55:08;99732.09;;;7.96;100.00
804;BME280;25687;49.976;8.240;2023-11-21T06:57:33;99736.16;;;8.00;100.00
804;BME280;25687;49.976;8.240;2023-11-21T06:59:59;99747.00;;;8.05;100.00
804;BME280;25687;49.976;8.240;2023-11-21T07:02:24;99749.72;;;8.02;100.00
804;BME280;25687;49.976;8.240;2023-11-21T07:04:50;99753.63;;;8.10;100.00
804;BME280;25687;49.976;8.240;2023-11-21T07:07:15;99751.91;;;8.10;100.00
804;BME280;25687;49.976;8.240;2023-11-21T07:09:40;99754.84;;;8.20;100.00
804;BME280;25687;49.976;8.240;2023-11-21T07:12:06;99751.34;;;8.21;100.00
804;BME280;25687;49.976;8.240;2023-11-21T07:14:35;99772.91;;;8.17;100.00
804;BME280;25687;49.976;8.240;2023-11-21T07:17:02;99766.59;;;8.24;100.00
804;BME280;25687;49.976;8.240;2023-11-21T07:19:27;99777.34;;;8.31;100.00
804;BME280;25687;49.976;8.240;2023-11-21T07:21:53;99774.25;;;8.42;100.00
804;BME280;25687;49.976;8.240;2023-11-21T07:24:18;99774.41;;;8.38;100.00
804;BME280;25687;49.976;8.240;2023-11-21T07:26:44;99771.56;;;8.45;100.00
804;BME280;25687;49.976;8.240;2023-11-21T07:29:09;99775.47;;;8.52;100.00
804;BME280;25687;49.976;8.240;2023-11-21T07:31:34;99781.13;;;8.41;100.00
804;BME280;25687;49.976;8.240;2023-11-21T07:34:00;99787.38;;;8.53;100.00
804;BME280;25687;49.976;8.240;2023-11-21T07:36:26;99786.38;;;8.55;100.00
804;BME280;25687;49.976;8.240;2023-11-21T07:38:51;99790.47;;;8.60;100.00
804;BME280;25687;49.976;8.240;2023-11-21T07:41:17;99787.06;;;8.59;100.00
804;BME280;25687;49.976;8.240;2023-11-21T07:43:44;99796.88;;;8.68;100.00
804;BME280;25687;49.976;8.240;2023-11-21T07:46:10;99798.06;;;8.61;100.00
804;BME280;25687;49.976;8.240;2023-11-21T07:48:38;99801.84;;;8.54;100.00
804;BME280;25687;49.976;8.240;2023-11-21T07:51:03;99801.72;;;8.57;100.00
804;BME280;25687;49.976;8.240;2023-11-21T07:53:28;99802.34;;;8.61;100.00
804;BME280;25687;49.976;8.240;2023-11-21T07:55:55;99803.56;;;8.71;100.00
804;BME280;25687;49.976;8.240;2023-11-21T07:58:21;99815.63;;;8.69;100.00
804;BME280;25687;49.976;8.240;2023-11-21T08:00:46;99820.41;;;8.59;100.00
804;BME280;25687;49.976;8.240;2023-11-21T08:03:13;99819.78;;;8.71;100.00
804;BME280;25687;49.976;8.240;2023-11-21T08:05:38;99812.84;;;8.74;100.00
804;BME280;25687;49.976;8.240;2023-11-21T08:08:04;99823.91;;;8.74;100.00
804;BME280;25687;49.976;8.240;2023-11-21T08:10:29;99821.19;;;8.77;100.00
804;BME280;25687;49.976;8.240;2023-11-21T08:12:55;99826.66;;;8.71;100.00
804;BME280;25687;49.976;8.240;2023-11-21T08:15:20;99823.59;;;8.80;100.00
804;BME280;25687;49.976;8.240;2023-11-21T08:17:46;99828.25;;;8.90;100.00
804;BME280;25687;49.976;8.240;2023-11-21T08:20:12;99824.38;;;8.98;100.00
804;BME280;25687;49.976;8.240;2023-11-21T08:22:37;99830.91;;;9.04;100.00
804;BME280;25687;49.976;8.240;2023-11-21T08:25:03;99832.94;;;9.15;100.00
804;BME280;25687;49.976;8.240;2023-11-21T08:27:31;99834.34;;;9.04;100.00
804;BME280;25687;49.976;8.240;2023-11-21T08:29:56;99836.81;;;9.06;100.00
804;BME280;25687;49.976;8.240;2023-11-21T08:32:22;99845.75;;;9.15;100.00
804;BME280;25687;49.976;8.240;2023-11-21T08:34:47;99842.75;;;9.07;100.00
804;BME280;25687;49.976;8.240;2023-11-21T08:37:16;99852.78;;;9.11;100.00
804;BME280;25687;49.976;8.240;2023-11-21T08:39:41;99849.50;;;9.09;100.00
804;BME280;25687;49.976;8.240;2023-11-21T08:42:07;99854.00;;;9.04;100.00
804;BME280;25687;49.976;8.240;2023-11-21T08:44:33;99854.19;;;9.01;100.00
804;BME280;25687;49.976;8.240;2023-11-21T08:46:58;99863.53;;;9.02;100.00
804;BME280;25687;49.976;8.240;2023-11-21T08:49:23;99869.66;;;8.99;100.00
804;BME280;25687;49.976;8.240;2023-11-21T08:51:51;99869.19;;;9.09;100.00
804;BME280;25687;49.976;8.240;2023-11-21T08:54:16;99865.69;;;9.10;100.00
804;BME280;25687;49.976;8.240;2023-11-21T08:56:43;99870.66;;;9.13;100.00
804;BME280;25687;49.976;8.240;2023-11-21T08:59:08;99873.31;;;9.11;100.00
804;BME280;25687;49.976;8.240;2023-11-21T09:01:34;99877.81;;;8.90;100.00
804;BME280;25687;49.976;8.240;2023-11-21T09:03:59;99866.59;;;9.09;100.00
804;BME280;25687;49.976;8.240;2023-11-21T09:06:24;99873.66;;;9.21;100.00
804;BME280;25687;49.976;8.240;2023-11-21T09:08:50;99881.16;;;9.42;100.00
804;BME280;25687;49.976;8.240;2023-11-21T09:11:15;99882.72;;;9.28;100.00
804;BME280;25687;49.976;8.240;2023-11-21T09:13:40;99885.53;;;9.40;100.00
804;BME280;25687;49.976;8.240;2023-11-21T09:16:06;99889.44;;;9.63;100.00
804;BME280;25687;49.976;8.240;2023-11-21T09:18:31;99888.78;;;9.75;100.00
804;BME280;25687;49.976;8.240;2023-11-21T09:20:57;99895.41;;;9.63;100.00
804;BME280;25687;49.976;8.240;2023-11-21T09:23:22;99902.19;;;9.64;100.00
804;BME280;25687;49.976;8.240;2023-11-21T09:25:48;99897.81;;;9.66;100.00
804;BME280;25687;49.976;8.240;2023-11-21T09:28:15;99903.34;;;9.59;100.00
804;BME280;25687;49.976;8.240;2023-11-21T09:30:42;99903.94;;;9.64;100.00
804;BME280;25687;49.976;8.240;2023-11-21T09:33:09;99907.00;;;9.71;100.00
804;BME280;25687;49.976;8.240;2023-11-21T09:35:38;99901.44;;;9.78;100.00
804;BME280;25687;49.976;8.240;2023-11-21T09:38:04;99902.19;;;9.96;100.00
804;BME280;25687;49.976;8.240;2023-11-21T09:40:36;99915.84;;;9.97;100.00
804;BME280;25687;49.976;8.240;2023-11-21T09:43:06;99920.25;;;9.95;100.00
804;BME280;25687;49.976;8.240;2023-11-21T09:45:35;99922.66;;;9.66;100.00
804;BME280;25687;49.976;8.240;2023-11-21T09:48:01;99915.59;;;9.69;100.00
804;BME280;25687;49.976;8.240;2023-11-21T09:50:27;99921.94;;;9.80;100.00
804;BME280;25687;49.976;8.240;2023-11-21T09:52:56;99922.91;;;9.77;100.00
804;BME280;25687;49.976;8.240;2023-11-21T09:55:24;99927.22;;;9.93;100.00
804;BME280;25687;49.976;8.240;2023-11-21T09:57:52;99938.31;;;9.77;100.00
804;BME280;25687;49.976;8.240;2023-11-21T10:00:18;99933.25;;;9.92;100.00
804;BME280;25687;49.976;8.240;2023-11-21T10:02:45;99943.53;;;9.92;100.00
804;BME280;25687;49.976;8.240;2023-11-21T10:05:13;99944.88;;;9.83;100.00
804;BME280;25687;49.976;8.240;2023-11-21T10:07:39;99944.28;;;9.62;100.00
804;BME280;25687;49.976;8.240;2023-11-21T10:10:07;99943.06;;;9.69;100.00
804;BME280;25687;49.976;8.240;2023-11-21T10:12:34;99944.59;;;9.56;100.00
804;BME280;25687;49.976;8.240;2023-11-21T10:15:02;99951.50;;;9.55;100.00
804;BME280;25687;49.976;8.240;2023-11-21T10:17:30;99947.50;;;9.49;100.00
804;BME280;25687;49.976;8.240;2023-11-21T10:20:03;99950.59;;;9.88;100.00
804;BME280;25687;49.976;8.240;2023-11-21T10:22:31;99952.13;;;10.23;100.00
804;BME280;25687;49.976;8.240;2023-11-21T10:24:56;99954.47;;;10.27;100.00
804;BME280;25687;49.976;8.240;2023-11-21T10:27:22;99955.78;;;10.51;100.00
804;BME280;25687;49.976;8.240;2023-11-21T10:29:51;99959.94;;;10.68;100.00
804;BME280;25687;49.976;8.240;2023-11-21T10:32:16;99949.56;;;10.39;100.00
804;BME280;25687;49.976;8.240;2023-11-21T10:34:41;99958.81;;;10.57;100.00
804;BME280;25687;49.976;8.240;2023-11-21T10:37:13;99962.34;;;10.71;100.00
804;BME280;25687;49.976;8.240;2023-11-21T10:39:39;99955.59;;;10.54;100.00
804;BME280;25687;49.976;8.240;2023-11-21T10:42:04;99959.47;;;10.61;100.00
804;BME280;25687;49.976;8.240;2023-11-21T10:44:34;99966.63;;;10.56;100.00
804;BME280;25687;49.976;8.240;2023-11-21T10:46:59;99964.22;;;10.53;100.00
804;BME280;25687;49.976;8.240;2023-11-21T10:49:26;99961.31;;;10.27;100.00
804;BME280;25687;49.976;8.240;2023-11-21T10:51:53;99960.25;;;10.31;100.00
804;BME280;25687;49.976;8.240;2023-11-21T10:54:23;99960.84;;;10.52;100.00
804;BME280;25687;49.976;8.240;2023-11-21T10:56:50;99953.63;;;10.43;100.00
804;BME280;25687;49.976;8.240;2023-11-21T10:59:18;99952.28;;;10.52;100.00
804;BME280;25687;49.976;8.240;2023-11-21T11:01:46;99952.97;;;10.39;100.00
804;BME280;25687;49.976;8.240;2023-11-21T11:04:15;99953.28;;;10.33;100.00
804;BME280;25687;49.976;8.240;2023-11-21T11:06:55;99954.47;;;10.27;100.00
804;BME280;25687;49.976;8.240;2023-11-21T11:09:22;99956.13;;;10.28;100.00
804;BME280;25687;49.976;8.240;2023-11-21T11:11:48;99960.84;;;10.52;100.00
804;BME280;25687;49.976;8.240;2023-11-21T11:14:14;99953.03;;;10.54;100.00
804;BME280;25687;49.976;8.240;2023-11-21T11:16:40;99960.59;;;10.57;100.00
804;BME280;25687;49.976;8.240;2023-11-21T11:19:10;99951.19;;;10.56;100.00
804;BME280;25687;49.976;8.240;2023-11-21T11:35:29;99931.16;;;11.06;100.00
804;BME280;25687;49.976;8.240;2023-11-21T11:37:59;99938.59;;;10.96;100.00
804;BME280;25687;49.976;8.240;2023-11-21T11:40:38;99945.84;;;10.89;100.00
804;BME280;25687;49.976;8.240;2023-11-21T11:43:06;99949.19;;;11.20;100.00
804;BME280;25687;49.976;8.240;2023-11-21T11:45:33;99941.94;;;11.27;100.00
804;BME280;25687;49.976;8.240;2023-11-21T11:48:00;99935.72;;;11.58;100.00
804;BME280;25687;49.976;8.240;2023-11-21T11:50:25;99932.63;;;11.53;100.00
804;BME280;25687;49.976;8.240;2023-11-21T11:52:55;99936.56;;;11.44;100.00
804;BME280;25687;49.976;8.240;2023-11-21T11:55:36;99933.63;;;11.65;100.00
804;BME280;25687;49.976;8.240;2023-11-21T11:58:06;99940.47;;;11.93;100.00
804;BME280;25687;49.976;8.240;2023-11-21T12:02:59;99943.56;;;12.40;100.00
804;BME280;25687;49.976;8.240;2023-11-21T12:05:27;99949.75;;;12.51;100.00
804;BME280;25687;49.976;8.240;2023-11-21T12:07:57;99944.31;;;12.68;100.00
804;BME280;25687;49.976;8.240;2023-11-21T12:10:24;99946.97;;;12.54;100.00
804;BME280;25687;49.976;8.240;2023-11-21T12:12:52;99947.72;;;12.16;100.00
804;BME280;25687;49.976;8.240;2023-11-21T12:15:18;99947.41;;;11.78;100.00
804;BME280;25687;49.976;8.240;2023-11-21T12:17:45;99960.09;;;11.96;100.00
804;BME280;25687;49.976;8.240;2023-11-21T12:20:12;99956.84;;;11.92;100.00
804;BME280;25687;49.976;8.240;2023-11-21T12:22:52;99967.59;;;11.57;100.00
804;BME280;25687;49.976;8.240;2023-11-21T12:25:24;99976.16;;;11.29;100.00
804;BME280;25687;49.976;8.240;2023-11-21T12:27:51;99971.34;;;11.08;100.00
804;BME280;25687;49.976;8.240;2023-11-21T12:30:19;99976.03;;;11.02;100.00
804;BME280;25687;49.976;8.240;2023-11-21T12:32:54;99980.47;;;10.84;100.00
804;BME280;25687;49.976;8.240;2023-11-21T12:35:22;99980.56;;;10.82;100.00
804;BME280;25687;49.976;8.240;2023-11-21T12:37:48;99986.81;;;10.78;100.00
804;BME280;25687;49.976;8.240;2023-11-21T12:40:15;99984.34;;;10.60;100.00
804;BME280;25687;49.976;8.240;2023-11-21T12:42:41;99987.59;;;10.64;100.00
804;BME280;25687;49.976;8.240;2023-11-21T12:45:26;99988.78;;;10.58;100.00
804;BME280;25687;49.976;8.240;2023-11-21T12:48:00;99995.94;;;10.53;100.00
804;BME280;25687;49.976;8.240;2023-11-21T12:50:29;99997.66;;;10.53;100.00
804;BME280;25687;49.976;8.240;2023-11-21T12:53:17;100008.94;;;10.50;100.00
804;BME280;25687;49.976;8.240;2023-11-21T12:55:43;100011.44;;;10.52;100.00
804;BME280;25687;49.976;8.240;2023-11-21T12:58:15;100011.69;;;10.47;100.00
804;BME280;25687;49.976;8.240;2023-11-21T13:00:43;100007.03;;;10.54;100.00
804;BME280;25687;49.976;8.240;2023-11-21T13:03:11;100011.50;;;10.34;100.00
804;BME280;25687;49.976;8.240;2023-11-21T13:05:39;100013.94;;;10.37;100.00
804;BME280;25687;49.976;8.240;2023-11-21T13:08:08;100007.22;;;10.34;100.00
804;BME280;25687;49.976;8.240;2023-11-21T13:10:36;100009.84;;;10.49;100.00
804;BME280;25687;49.976;8.240;2023-11-21T13:13:04;100022.25;;;10.42;100.00
804;BME280;25687;49.976;8.240;2023-11-21T13:15:40;100026.13;;;10.49;100.00
804;BME280;25687;49.976;8.240;2023-11-21T13:18:10;100030.53;;;10.47;100.00
804;BME280;25687;49.976;8.240;2023-11-21T13:20:36;100029.28;;;10.39;100.00
804;BME280;25687;49.976;8.240;2023-11-21T13:23:07;100034.19;;;10.43;100.00
804;BME280;25687;49.976;8.240;2023-11-21T13:25:33;100036.31;;;10.35;100.00
804;BME280;25687;49.976;8.240;2023-11-21T13:27:59;100034.97;;;10.12;100.00
804;BME280;25687;49.976;8.240;2023-11-21T13:30:26;100045.53;;;10.07;100.00
804;BME280;25687;49.976;8.240;2023-11-21T13:32:56;100044.75;;;10.05;100.00